MV Alemania — V2OG7 — position and weather

sailwx.info

Track history (hours):
 
Tides and Currents Weather Stations Pressure Air Temp Water Temp Dewpoint Dewpoint Depression Visibility Wind Speed Wind Dir Waves Ship Positions

MV Alemania

Last reported at 2014-Aug-30 17:27 UTC. Time now 2014-Sep-01 13:43 UTC.
Position N 37°32' E 023°41'.

Length 133 m; draft 8.3 m.

Type: Cargo ship. MMSI: 304010613.

Date/timePositionNaut miles runAvg speedWind from/ knotsBaromVisibWave heightAir tempDewpointWater temp
2014-Aug-30 17:27N 37°32' E 023°41'1011.1
2014-Aug-30 16:32N 37°42' E 023°41'1111.3
2014-Aug-30 15:33N 37°53' E 023°36'5 4.6
2014-Aug-30 14:31N 37°57' E 023°35'0 0.0
2014-Aug-30 13:33N 37°57' E 023°35'0 0.0
2014-Aug-30 12:33N 37°57' E 023°35'0 0.0
2014-Aug-30 11:33N 37°57' E 023°35'0 0.0
2014-Aug-30 10:32N 37°57' E 023°35'0 0.0
2014-Aug-30 09:32N 37°57' E 023°35'0 0.0
2014-Aug-30 08:31N 37°57' E 023°35'0 0.0
2014-Aug-30 07:31N 37°57' E 023°35'0 0.0
2014-Aug-30 06:33N 37°57' E 023°35'0 0.0
2014-Aug-30 05:33N 37°57' E 023°35'0 0.0
2014-Aug-30 04:33N 37°57' E 023°35'0 0.0
2014-Aug-30 03:32N 37°57' E 023°35'0 0.0
2014-Aug-30 02:32N 37°57' E 023°35'0 0.0
2014-Aug-30 01:31N 37°57' E 023°35'0 0.0
2014-Aug-30 00:31N 37°57' E 023°35'0 0.0
2014-Aug-29 23:33N 37°57' E 023°35'0 0.0
2014-Aug-29 22:33N 37°57' E 023°35'0 0.0
2014-Aug-29 21:33N 37°57' E 023°35'0 0.0
2014-Aug-29 20:32N 37°57' E 023°35'0 0.4
2014-Aug-29 19:34N 37°57' E 023°35'5 4.9
2014-Aug-29 18:34N 37°53' E 023°38'1110.6
2014-Aug-29 17:34N 37°43' E 023°43'416 9.6
2014-Aug-27 22:08N 36°20' E 015°13'911.4
2014-Aug-27 21:23N 36°20' E 015°03'911.4
2014-Aug-27 20:34N 36°20' E 014°51'1111.3
2014-Aug-27 19:34N 36°20' E 014°37'1111.1
2014-Aug-27 18:34N 36°20' E 014°23'1111.0
2014-Aug-27 17:33N 36°20' E 014°09'1110.9
2014-Aug-27 16:33N 36°22' E 013°56'1111.1
2014-Aug-27 15:33N 36°25' E 013°43'1111.3
2014-Aug-27 14:33N 36°30' E 013°30'1211.9
2014-Aug-27 13:34N 36°34' E 013°16'1212.1
2014-Aug-27 12:33N 36°39' E 013°02'1211.5
2014-Aug-27 11:34N 36°44' E 012°49'1111.1
2014-Aug-27 10:33N 36°48' E 012°36'1110.7
2014-Aug-27 09:34N 36°51' E 012°23'1110.7
2014-Aug-27 08:33N 36°54' E 012°11'1110.8
2014-Aug-27 07:30N 37°01' E 011°59'5410.9
2014-Aug-27 02:33N 37°24' E 010°58'1111.0
2014-Aug-27 01:33N 37°23' E 010°45'1111.1
2014-Aug-27 00:33N 37°21' E 010°31'1211.3
2014-Aug-26 23:29N 37°19' E 010°16'1010.9
2014-Aug-26 22:33N 37°18' E 010°03'8 7.7
2014-Aug-26 21:33N 37°17' E 009°53'1 0.9
2014-Aug-26 20:33N 37°16' E 009°52'0 0.0
2014-Aug-26 19:28N 37°16' E 009°52'0 0.0
2014-Aug-26 14:23N 37°16' E 009°52'0 0.0
2014-Aug-26 11:31N 37°16' E 009°52'0 0.0
2014-Aug-26 10:33N 37°16' E 009°52'0 0.0
2014-Aug-26 09:33N 37°16' E 009°52'0 0.0
2014-Aug-26 08:33N 37°16' E 009°52'0 0.0
2014-Aug-26 07:29N 37°16' E 009°52'0 0.0
2014-Aug-26 06:32N 37°16' E 009°52'0 0.0
2014-Aug-26 05:31N 37°16' E 009°52'0 0.0
2014-Aug-26 04:13N 37°16' E 009°52'0 0.0
2014-Aug-26 03:27N 37°16' E 009°52'0 0.0
2014-Aug-26 02:33N 37°16' E 009°52'0 0.0
2014-Aug-26 01:30N 37°16' E 009°52'0 0.0
2014-Aug-26 00:17N 37°16' E 009°52'0 0.0
2014-Aug-25 23:23N 37°16' E 009°52'0 0.0
2014-Aug-25 22:31N 37°16' E 009°52'0 0.0
2014-Aug-25 21:22N 37°16' E 009°52'0 0.0
2014-Aug-25 19:33N 37°16' E 009°52'0 0.0
2014-Aug-25 18:33N 37°16' E 009°52'0 0.0
2014-Aug-25 17:32N 37°16' E 009°52'0 0.0
2014-Aug-25 16:29N 37°16' E 009°52'0 0.0
2014-Aug-25 15:10N 37°16' E 009°52'0 0.0
2014-Aug-24 12:32N 37°16' E 009°52'0 0.0
2014-Aug-23 23:20N 37°16' E 009°52'0 0.0
2014-Aug-23 20:06N 37°16' E 009°52'0 0.0
2014-Aug-22 16:18N 37°16' E 009°52'0 0.0
2014-Aug-22 15:33N 37°16' E 009°52'0 0.0
2014-Aug-22 14:33N 37°16' E 009°52'0 0.0
2014-Aug-22 13:23N 37°16' E 009°52'0 0.0
2014-Aug-22 10:22N 37°16' E 009°52'0 0.0
2014-Aug-22 04:26N 37°16' E 009°53'2 2.2
2014-Aug-22 03:32N 37°17' E 009°55'4 3.6
2014-Aug-22 02:32N 37°17' E 009°59'12 9.4
2014-Aug-22 01:13N 37°21' E 010°15'710.4
2014-Aug-22 00:32N 37°21' E 010°23'1010.6
2014-Aug-21 23:34N 37°23' E 010°36'1110.6
2014-Aug-21 22:33N 37°25' E 010°49'1410.9
2014-Aug-21 21:16N 37°27' E 011°07'5311.2
2014-Aug-21 16:33N 37°04' E 012°07'1111.5
2014-Aug-21 15:34N 36°59' E 012°20'1211.7
2014-Aug-21 14:34N 36°54' E 012°33'1211.9
2014-Aug-21 13:33N 36°48' E 012°46'1211.8
2014-Aug-21 12:33N 36°43' E 012°60'1211.7
2014-Aug-21 11:33N 36°38' E 013°13'1211.8
2014-Aug-21 10:34N 36°33' E 013°26'1212.1
2014-Aug-21 09:33N 36°28' E 013°40'1212.0
2014-Aug-21 08:33N 36°23' E 013°53'1211.8
2014-Aug-21 07:33N 36°20' E 014°07'1211.8
2014-Aug-21 06:33N 36°20' E 014°22'1211.8
2014-Aug-21 05:33N 36°20' E 014°37'1211.7
2014-Aug-21 04:33N 36°20' E 014°51'1212.1
2014-Aug-21 03:33N 36°20' E 015°06'1211.9
2014-Aug-21 02:33N 36°20' E 015°21'1211.7
2014-Aug-21 01:33N 36°20' E 015°35'1111.4
2014-Aug-21 00:33N 36°20' E 015°50'2211.0
2014-Aug-20 22:33N 36°20' E 016°17'  
Track history (hours):
 
Tides and Currents Weather Stations Pressure Air Temp Water Temp Dewpoint Dewpoint Depression Visibility Wind Speed Wind Dir Waves Ship Positions

MV Alemania

Last reported at 2014-Aug-30 17:27 UTC. Time now 2014-Sep-01 13:43 UTC.
Position N 37°32' E 023°41'.

Length 133 m; draft 8.3 m.

Type: Cargo ship. MMSI: 304010613.

Date/timePositionNaut miles runAvg speedWind from/ knotsBaromVisibWave heightAir tempDewpointWater temp
2014-Aug-30 17:27N 37°32' E 023°41'1011.1
2014-Aug-30 16:32N 37°42' E 023°41'1111.3
2014-Aug-30 15:33N 37°53' E 023°36'5 4.6
2014-Aug-30 14:31N 37°57' E 023°35'0 0.0
2014-Aug-30 13:33N 37°57' E 023°35'0 0.0
2014-Aug-30 12:33N 37°57' E 023°35'0 0.0
2014-Aug-30 11:33N 37°57' E 023°35'0 0.0
2014-Aug-30 10:32N 37°57' E 023°35'0 0.0
2014-Aug-30 09:32N 37°57' E 023°35'0 0.0
2014-Aug-30 08:31N 37°57' E 023°35'0 0.0
2014-Aug-30 07:31N 37°57' E 023°35'0 0.0
2014-Aug-30 06:33N 37°57' E 023°35'0 0.0
2014-Aug-30 05:33N 37°57' E 023°35'0 0.0
2014-Aug-30 04:33N 37°57' E 023°35'0 0.0
2014-Aug-30 03:32N 37°57' E 023°35'0 0.0
2014-Aug-30 02:32N 37°57' E 023°35'0 0.0
2014-Aug-30 01:31N 37°57' E 023°35'0 0.0
2014-Aug-30 00:31N 37°57' E 023°35'0 0.0
2014-Aug-29 23:33N 37°57' E 023°35'0 0.0
2014-Aug-29 22:33N 37°57' E 023°35'0 0.0
2014-Aug-29 21:33N 37°57' E 023°35'0 0.0
2014-Aug-29 20:32N 37°57' E 023°35'0 0.4
2014-Aug-29 19:34N 37°57' E 023°35'5 4.9
2014-Aug-29 18:34N 37°53' E 023°38'1110.6
2014-Aug-29 17:34N 37°43' E 023°43'416 9.6
2014-Aug-27 22:08N 36°20' E 015°13'911.4
2014-Aug-27 21:23N 36°20' E 015°03'911.4
2014-Aug-27 20:34N 36°20' E 014°51'1111.3
2014-Aug-27 19:34N 36°20' E 014°37'1111.1
2014-Aug-27 18:34N 36°20' E 014°23'1111.0
2014-Aug-27 17:33N 36°20' E 014°09'1110.9
2014-Aug-27 16:33N 36°22' E 013°56'1111.1
2014-Aug-27 15:33N 36°25' E 013°43'1111.3
2014-Aug-27 14:33N 36°30' E 013°30'1211.9
2014-Aug-27 13:34N 36°34' E 013°16'1212.1
2014-Aug-27 12:33N 36°39' E 013°02'1211.5
2014-Aug-27 11:34N 36°44' E 012°49'1111.1
2014-Aug-27 10:33N 36°48' E 012°36'1110.7
2014-Aug-27 09:34N 36°51' E 012°23'1110.7
2014-Aug-27 08:33N 36°54' E 012°11'1110.8
2014-Aug-27 07:30N 37°01' E 011°59'5410.9
2014-Aug-27 02:33N 37°24' E 010°58'1111.0
2014-Aug-27 01:33N 37°23' E 010°45'1111.1
2014-Aug-27 00:33N 37°21' E 010°31'1211.3
2014-Aug-26 23:29N 37°19' E 010°16'1010.9
2014-Aug-26 22:33N 37°18' E 010°03'8 7.7
2014-Aug-26 21:33N 37°17' E 009°53'1 0.9
2014-Aug-26 20:33N 37°16' E 009°52'0 0.0
2014-Aug-26 19:28N 37°16' E 009°52'0 0.0
2014-Aug-26 14:23N 37°16' E 009°52'0 0.0
2014-Aug-26 11:31N 37°16' E 009°52'0 0.0
2014-Aug-26 10:33N 37°16' E 009°52'0 0.0
2014-Aug-26 09:33N 37°16' E 009°52'0 0.0
2014-Aug-26 08:33N 37°16' E 009°52'0 0.0
2014-Aug-26 07:29N 37°16' E 009°52'0 0.0
2014-Aug-26 06:32N 37°16' E 009°52'0 0.0
2014-Aug-26 05:31N 37°16' E 009°52'0 0.0
2014-Aug-26 04:13N 37°16' E 009°52'0 0.0
2014-Aug-26 03:27N 37°16' E 009°52'0 0.0
2014-Aug-26 02:33N 37°16' E 009°52'0 0.0
2014-Aug-26 01:30N 37°16' E 009°52'0 0.0
2014-Aug-26 00:17N 37°16' E 009°52'0 0.0
2014-Aug-25 23:23N 37°16' E 009°52'0 0.0
2014-Aug-25 22:31N 37°16' E 009°52'0 0.0
2014-Aug-25 21:22N 37°16' E 009°52'0 0.0
2014-Aug-25 19:33N 37°16' E 009°52'0 0.0
2014-Aug-25 18:33N 37°16' E 009°52'0 0.0
2014-Aug-25 17:32N 37°16' E 009°52'0 0.0
2014-Aug-25 16:29N 37°16' E 009°52'0 0.0
2014-Aug-25 15:10N 37°16' E 009°52'0 0.0
2014-Aug-24 12:32N 37°16' E 009°52'0 0.0
2014-Aug-23 23:20N 37°16' E 009°52'0 0.0
2014-Aug-23 20:06N 37°16' E 009°52'0 0.0
2014-Aug-22 16:18N 37°16' E 009°52'0 0.0
2014-Aug-22 15:33N 37°16' E 009°52'0 0.0
2014-Aug-22 14:33N 37°16' E 009°52'0 0.0
2014-Aug-22 13:23N 37°16' E 009°52'0 0.0
2014-Aug-22 10:22N 37°16' E 009°52'0 0.0
2014-Aug-22 04:26N 37°16' E 009°53'2 2.2
2014-Aug-22 03:32N 37°17' E 009°55'4 3.6
2014-Aug-22 02:32N 37°17' E 009°59'12 9.4
2014-Aug-22 01:13N 37°21' E 010°15'710.4
2014-Aug-22 00:32N 37°21' E 010°23'1010.6
2014-Aug-21 23:34N 37°23' E 010°36'1110.6
2014-Aug-21 22:33N 37°25' E 010°49'1410.9
2014-Aug-21 21:16N 37°27' E 011°07'5311.2
2014-Aug-21 16:33N 37°04' E 012°07'1111.5
2014-Aug-21 15:34N 36°59' E 012°20'1211.7
2014-Aug-21 14:34N 36°54' E 012°33'1211.9
2014-Aug-21 13:33N 36°48' E 012°46'1211.8
2014-Aug-21 12:33N 36°43' E 012°60'1211.7
2014-Aug-21 11:33N 36°38' E 013°13'1211.8
2014-Aug-21 10:34N 36°33' E 013°26'1212.1
2014-Aug-21 09:33N 36°28' E 013°40'1212.0
2014-Aug-21 08:33N 36°23' E 013°53'1211.8
2014-Aug-21 07:33N 36°20' E 014°07'1211.8
2014-Aug-21 06:33N 36°20' E 014°22'1211.8
2014-Aug-21 05:33N 36°20' E 014°37'1211.7
2014-Aug-21 04:33N 36°20' E 014°51'1212.1
2014-Aug-21 03:33N 36°20' E 015°06'1211.9
2014-Aug-21 02:33N 36°20' E 015°21'1211.7
2014-Aug-21 01:33N 36°20' E 015°35'1111.4
2014-Aug-21 00:33N 36°20' E 015°50'2211.0
2014-Aug-20 22:33N 36°20' E 016°17'  

Dump ship's entire track history